Terminal Aerodrome Forecast
Issued by NWS Wilmington, OH

Current Version | Previous Version | Text Only | Print | Product List | Glossary Off
Versions: 1 2 3 4 5 6 7 8 9 10 11 12 13 14 15 16 17 18 19 20 21 22 23 24 25 26

000
FTUS41 KILN 252300
TAFCVG
TAF
KCVG 252330Z 2600/2706 08003KT 5SM -RA BR OVC025
      TEMPO 2603/2605 01011G21KT 1SM -SNRA OVC005
     FM260500 36015G22KT 2SM -SN OVC005
     FM260800 34012G20KT P6SM OVC015
     FM261200 34012KT P6SM OVC015
     FM261700 32010KT P6SM SCT018 BKN250
     FM262200 34005KT P6SM OVC100=

USA.gov is the U.S. government's official web portal to all federal, state and local government web resources and services.